< < Back
Terminal Aerodrome Forecast


Current Version              Previous Versions:   1  2  3  4  5  6  7  8  9  

Terminal Aerodrome Forecast

756
FTUS42 KGSP 221100
TAFGSP
TAF
KGSP 221121Z 2212/2312 02008KT P6SM FEW080
     FM230000 03007KT P6SM SCT250=

Latest METAR

669
SAUS70 KWBC 222200 RRJ
MTRGSP
METAR KGSP 222153Z 07005KT 10SM CLR 23/13 A3004 RMK AO2 SLP164
T02330128


USA.gov is the U.S. government's official web portal to all federal, state and local government web resources and services.